createdAt,value
2023-03-12T00:02:15.106Z,5.50
2023-03-12T00:05:00.619Z,6.38
2023-03-12T00:07:46.030Z,6.78
2023-03-12T00:10:31.627Z,5.72
2023-03-12T00:13:17.201Z,5.45
2023-03-12T00:16:12.584Z,6.90
2023-03-12T00:18:58.350Z,6.25
2023-03-12T00:21:43.867Z,5.55
2023-03-12T00:24:29.242Z,7.57
2023-03-12T00:27:14.759Z,6.25
2023-03-12T00:30:00.358Z,4.80
2023-03-12T00:32:45.836Z,6.68
2023-03-12T00:35:31.276Z,5.97
2023-03-12T00:38:16.687Z,8.13
2023-03-12T00:41:02.238Z,6.28
2023-03-12T00:43:49.415Z,6.28
2023-03-12T00:46:35.124Z,6.78
2023-03-12T00:49:20.881Z,7.15
2023-03-12T00:52:06.617Z,8.68
2023-03-12T00:54:52.210Z,7.18
2023-03-12T00:57:37.663Z,7.85
2023-03-12T01:00:23.349Z,7.38
2023-03-12T01:03:08.698Z,6.47
2023-03-12T01:05:57.002Z,6.85
2023-03-12T01:08:42.212Z,6.28
2023-03-12T01:11:28.490Z,7.00
2023-03-12T01:14:14.890Z,6.45
2023-03-12T01:17:00.276Z,6.85
2023-03-12T01:19:45.735Z,8.40
2023-03-12T01:22:31.350Z,8.65
2023-03-12T01:25:16.459Z,7.32
2023-03-12T01:28:02.159Z,7.47
2023-03-12T01:30:47.905Z,5.97
2023-03-12T01:33:33.289Z,5.80
2023-03-12T01:36:25.034Z,6.45
2023-03-12T01:39:10.100Z,6.63
2023-03-12T01:41:55.649Z,7.32
2023-03-12T01:45:02.086Z,8.40
2023-03-12T01:47:49.643Z,7.32
2023-03-12T01:50:35.009Z,7.00
2023-03-12T01:53:20.602Z,9.57
2023-03-12T01:56:08.100Z,7.13
2023-03-12T01:58:58.718Z,6.40
2023-03-12T02:01:45.415Z,8.52
2023-03-12T02:04:33.013Z,9.48
2023-03-12T02:07:19.594Z,7.05
2023-03-12T02:10:05.476Z,7.95
2023-03-12T02:12:51.539Z,7.03
2023-03-12T02:15:38.257Z,6.45
2023-03-12T02:18:23.787Z,7.70
2023-03-12T02:21:25.827Z,6.63
2023-03-12T02:24:25.145Z,8.60
2023-03-12T02:27:12.011Z,8.63
2023-03-12T02:29:57.575Z,8.07
2023-03-12T02:32:45.217Z,6.40
2023-03-12T02:35:31.223Z,6.70
2023-03-12T02:38:38.260Z,6.88
2023-03-12T02:41:37.911Z,7.30
2023-03-12T02:44:31.463Z,5.85
2023-03-12T02:47:16.927Z,6.55
2023-03-12T02:50:02.426Z,7.15
2023-03-12T02:52:47.913Z,7.43
2023-03-12T02:55:33.426Z,5.40
2023-03-12T02:58:18.913Z,6.65
2023-03-12T03:01:04.644Z,8.02
2023-03-12T03:03:50.406Z,9.27
2023-03-12T03:06:37.734Z,5.90
2023-03-12T03:09:24.345Z,7.80
2023-03-12T03:12:09.700Z,6.75
2023-03-12T03:14:56.202Z,6.68
2023-03-12T03:17:41.828Z,6.85
2023-03-12T03:20:27.184Z,6.97
2023-03-12T03:23:12.457Z,7.38
2023-03-12T03:25:59.578Z,6.72
2023-03-12T03:28:45.048Z,6.55
2023-03-12T03:31:31.130Z,7.00
2023-03-12T03:34:17.237Z,8.65
2023-03-12T03:37:02.901Z,6.85
2023-03-12T03:39:49.933Z,5.25
2023-03-12T03:42:36.382Z,7.95
2023-03-12T03:45:21.944Z,6.03
2023-03-12T03:48:07.540Z,6.07
2023-03-12T03:50:53.042Z,6.88
2023-03-12T03:53:38.693Z,6.50
2023-03-12T03:56:25.036Z,6.20
2023-03-12T03:59:10.767Z,5.93
2023-03-12T04:01:58.132Z,5.53
2023-03-12T04:04:45.185Z,7.50
2023-03-12T04:07:30.649Z,5.28
2023-03-12T04:10:16.629Z,5.38
2023-03-12T04:13:01.942Z,7.45
2023-03-12T04:15:49.067Z,5.43
2023-03-12T04:18:36.230Z,6.60
2023-03-12T04:21:22.250Z,4.95
2023-03-12T04:24:14.616Z,7.05
2023-03-12T04:27:00.394Z,5.30
2023-03-12T04:29:46.238Z,8.13
2023-03-12T04:32:31.996Z,7.03
2023-03-12T04:35:17.641Z,5.75
2023-03-12T04:38:04.083Z,8.10
2023-03-12T04:41:09.030Z,6.53
2023-03-12T04:43:56.874Z,7.07
2023-03-12T04:46:43.164Z,5.30
2023-03-12T04:49:31.794Z,7.72
2023-03-12T04:52:17.706Z,6.20
2023-03-12T04:55:03.737Z,8.55
2023-03-12T04:57:49.458Z,6.22
2023-03-12T05:00:36.105Z,7.30
2023-03-12T05:03:22.009Z,7.07
2023-03-12T05:06:07.589Z,6.18
2023-03-12T05:08:53.162Z,5.78
2023-03-12T05:11:39.850Z,7.00
2023-03-12T05:14:29.063Z,8.00
2023-03-12T05:17:15.250Z,5.13
2023-03-12T05:20:00.963Z,6.40
2023-03-12T05:22:46.454Z,6.07
2023-03-12T05:25:32.431Z,5.82
2023-03-12T05:28:18.274Z,7.20
2023-03-12T05:31:10.432Z,5.78
2023-03-12T05:36:42.139Z,4.70
2023-03-12T05:39:28.453Z,6.60
2023-03-12T05:42:17.922Z,6.93
2023-03-12T05:45:05.166Z,5.75
2023-03-12T05:47:50.900Z,6.13
2023-03-12T05:50:36.729Z,6.45
2023-03-12T05:53:22.247Z,6.63
2023-03-12T05:56:10.821Z,7.43
2023-03-12T05:58:56.478Z,8.73
2023-03-12T06:01:42.068Z,6.30
2023-03-12T06:04:27.450Z,6.22
2023-03-12T06:07:12.875Z,5.00
2023-03-12T06:09:59.793Z,6.10
2023-03-12T06:12:45.514Z,8.40
2023-03-12T06:15:30.826Z,7.05
2023-03-12T06:18:16.386Z,7.60
2023-03-12T06:21:14.348Z,7.85
2023-03-12T06:24:00.022Z,6.80
2023-03-12T06:26:49.820Z,8.75
2023-03-12T06:29:35.422Z,9.27
2023-03-12T06:32:20.762Z,9.55
2023-03-12T06:35:06.408Z,7.10
2023-03-12T06:37:51.794Z,8.43
2023-03-12T06:40:37.313Z,7.72
2023-03-12T06:43:23.246Z,9.63
2023-03-12T06:46:11.464Z,9.13
2023-03-12T06:48:56.910Z,9.98
2023-03-12T06:51:42.292Z,11.55
2023-03-12T06:54:27.551Z,10.50
2023-03-12T06:57:12.923Z,7.82
2023-03-12T06:59:58.284Z,9.18
2023-03-12T07:02:43.766Z,7.40
2023-03-12T07:05:30.259Z,9.57
2023-03-12T07:08:16.665Z,10.85
2023-03-12T07:11:02.213Z,12.63
2023-03-12T07:13:47.898Z,9.30
2023-03-12T07:16:33.231Z,10.68
2023-03-12T07:19:19.368Z,8.68
2023-03-12T07:22:05.601Z,10.57
2023-03-12T07:24:51.374Z,9.55
2023-03-12T07:27:36.963Z,8.35
2023-03-12T07:30:25.988Z,8.68
2023-03-12T07:33:12.652Z,7.35
2023-03-12T07:35:58.512Z,8.18
2023-03-12T07:38:44.098Z,7.80
2023-03-12T07:41:29.783Z,8.18
2023-03-12T07:44:15.150Z,8.52
2023-03-12T07:47:12.801Z,8.40
2023-03-12T07:50:02.641Z,9.45
2023-03-12T07:52:48.134Z,10.13
2023-03-12T07:55:35.004Z,9.65
2023-03-12T07:58:20.586Z,9.13
2023-03-12T08:01:06.716Z,9.63
2023-03-12T08:03:52.283Z,7.75
2023-03-12T08:06:38.666Z,8.45
2023-03-12T08:09:24.099Z,10.48
2023-03-12T08:12:09.506Z,8.75
2023-03-12T08:14:55.003Z,8.55
2023-03-12T08:17:41.157Z,10.80
2023-03-12T08:20:26.255Z,9.93
2023-03-12T08:23:12.112Z,11.80
2023-03-12T08:25:58.845Z,10.68
2023-03-12T08:28:44.342Z,15.60
2023-03-12T08:31:29.841Z,13.30
2023-03-12T08:34:15.150Z,12.55
2023-03-12T08:37:01.127Z,13.25
2023-03-12T08:39:46.508Z,14.90
2023-03-12T08:42:31.791Z,16.08
2023-03-12T08:45:17.277Z,12.50
2023-03-12T08:48:04.228Z,14.65
2023-03-12T08:50:50.248Z,16.50
2023-03-12T08:53:36.729Z,16.50
2023-03-12T08:56:22.317Z,20.90
2023-03-12T08:59:13.401Z,17.27
2023-03-12T09:01:59.189Z,16.63
2023-03-12T09:04:50.884Z,15.88
2023-03-12T09:07:36.312Z,14.45
2023-03-12T09:10:21.946Z,16.92
2023-03-12T09:13:07.606Z,16.98
2023-03-12T09:15:52.797Z,18.27
2023-03-12T09:18:40.048Z,16.45
2023-03-12T09:21:25.535Z,20.08
2023-03-12T09:24:11.821Z,15.93
2023-03-12T09:26:56.993Z,18.88
2023-03-12T09:29:58.785Z,14.00
2023-03-12T09:35:31.589Z,16.35
2023-03-12T09:38:16.974Z,19.27
2023-03-12T09:41:05.426Z,20.52
2023-03-12T09:44:16.619Z,19.58
2023-03-12T09:47:13.858Z,21.63
2023-03-12T09:50:25.264Z,19.65
2023-03-12T09:53:31.169Z,22.80
2023-03-12T09:56:21.356Z,22.45
2023-03-12T09:59:12.365Z,22.38
2023-03-12T10:02:02.492Z,20.52
2023-03-12T10:05:00.023Z,21.85
2023-03-12T10:07:56.260Z,20.42
2023-03-12T10:10:55.362Z,22.40
2023-03-12T10:13:52.615Z,19.42
2023-03-12T10:17:00.093Z,19.42
2023-03-12T10:19:55.872Z,17.77
2023-03-12T10:22:58.779Z,22.77
2023-03-12T10:25:58.257Z,16.77
2023-03-12T10:28:51.669Z,17.92
2023-03-12T10:31:55.244Z,18.98
2023-03-12T10:34:53.804Z,22.80
2023-03-12T10:37:58.514Z,17.50
2023-03-12T10:40:43.852Z,17.08
2023-03-12T10:43:29.485Z,16.25
2023-03-12T10:46:14.819Z,16.23
2023-03-12T10:49:22.256Z,19.13
2023-03-12T10:52:19.388Z,14.13
2023-03-12T10:55:26.618Z,17.60
2023-03-12T10:58:23.729Z,12.38
2023-03-12T11:01:15.227Z,20.90
2023-03-12T11:04:24.482Z,19.35
2023-03-12T11:07:12.900Z,17.80
2023-03-12T11:10:07.346Z,26.50
2023-03-12T11:13:03.469Z,23.92
2023-03-12T11:15:48.931Z,22.88
2023-03-12T11:18:37.878Z,17.10
2023-03-12T11:21:28.552Z,19.88
2023-03-12T11:24:14.869Z,21.80
2023-03-12T11:27:21.055Z,17.40
2023-03-12T11:30:07.869Z,22.48
2023-03-12T11:32:53.435Z,18.23
2023-03-12T11:36:04.460Z,18.20
2023-03-12T11:38:55.448Z,17.33
2023-03-12T11:41:59.016Z,29.15
2023-03-12T11:45:05.599Z,23.88
2023-03-12T11:48:02.424Z,20.75
2023-03-12T11:51:07.786Z,20.23
2023-03-12T11:54:22.072Z,22.85
2023-03-12T11:57:13.447Z,23.48
2023-03-12T12:00:21.017Z,19.33
2023-03-12T12:03:42.362Z,15.70
2023-03-12T12:06:57.779Z,19.95
2023-03-12T12:10:22.642Z,24.83
2023-03-12T12:13:45.185Z,26.00
2023-03-12T12:16:59.594Z,23.80
2023-03-12T12:20:21.605Z,22.20
2023-03-12T12:23:19.595Z,21.20
2023-03-12T12:26:26.103Z,26.52
2023-03-12T12:29:29.789Z,23.08
2023-03-12T12:32:22.964Z,24.63
2023-03-12T12:35:19.874Z,21.15
2023-03-12T12:38:18.353Z,28.90
2023-03-12T12:41:08.207Z,21.90
2023-03-12T12:43:59.819Z,20.08
2023-03-12T12:46:50.775Z,24.67
2023-03-12T12:49:59.461Z,20.00
2023-03-12T12:52:46.285Z,28.52
2023-03-12T12:55:54.725Z,23.23
2023-03-12T12:58:51.264Z,24.33
2023-03-12T13:01:38.053Z,24.92
2023-03-12T13:04:28.364Z,23.45
2023-03-12T13:07:13.938Z,18.58
2023-03-12T13:09:59.660Z,19.85
2023-03-12T13:12:54.994Z,28.98
2023-03-12T13:15:43.662Z,33.03
2023-03-12T13:18:30.148Z,24.85
2023-03-12T13:21:26.895Z,25.70
2023-03-12T13:24:43.239Z,31.65
2023-03-12T13:27:38.582Z,28.02
2023-03-12T13:30:33.206Z,21.10
2023-03-12T13:33:21.637Z,30.38
2023-03-12T13:36:23.590Z,25.35
2023-03-12T13:39:21.088Z,26.70
2023-03-12T13:42:35.554Z,23.95
2023-03-12T13:45:26.932Z,24.73
2023-03-12T13:48:17.021Z,19.08
2023-03-12T13:51:14.929Z,29.48
2023-03-12T13:54:02.998Z,23.88
2023-03-12T13:56:57.445Z,22.33
2023-03-12T13:59:45.663Z,30.95
2023-03-12T14:02:34.983Z,23.88
2023-03-12T14:05:20.947Z,26.08
2023-03-12T14:08:29.707Z,18.95
2023-03-12T14:11:43.469Z,19.42
2023-03-12T14:14:50.891Z,28.27
2023-03-12T14:17:37.905Z,27.23
2023-03-12T14:20:24.005Z,22.55
2023-03-12T14:23:15.252Z,24.33
2023-03-12T14:26:04.278Z,20.58
2023-03-12T14:28:58.007Z,19.63
2023-03-12T14:31:43.566Z,19.85
2023-03-12T14:34:38.423Z,15.30
2023-03-12T14:37:36.458Z,22.20
2023-03-12T14:40:44.580Z,20.90
2023-03-12T14:43:35.152Z,21.67
2023-03-12T14:46:22.748Z,17.88
2023-03-12T14:49:19.237Z,22.35
2023-03-12T14:52:04.718Z,20.10
2023-03-12T14:54:56.044Z,19.33
2023-03-12T14:57:42.041Z,14.85
2023-03-12T15:00:28.666Z,20.30
2023-03-12T15:03:16.424Z,19.13
2023-03-12T15:06:01.790Z,17.33
2023-03-12T15:08:48.905Z,15.43
2023-03-12T15:11:37.173Z,18.73
2023-03-12T15:14:24.242Z,25.05
2023-03-12T15:17:17.341Z,22.85
2023-03-12T15:20:09.279Z,18.85
2023-03-12T15:22:55.287Z,24.73
2023-03-12T15:25:41.104Z,21.65
2023-03-12T15:28:28.056Z,18.15
2023-03-12T15:31:16.851Z,24.27
2023-03-12T15:34:06.337Z,22.92
2023-03-12T15:36:53.037Z,22.63
2023-03-12T15:39:38.729Z,20.77
2023-03-12T15:42:26.385Z,14.45
2023-03-12T15:45:28.957Z,13.50
2023-03-12T15:48:26.490Z,17.25
2023-03-12T15:51:30.646Z,20.15
2023-03-12T15:54:18.865Z,16.10
2023-03-12T15:57:23.424Z,16.40
2023-03-12T16:00:21.149Z,24.08
2023-03-12T16:03:14.959Z,18.50
2023-03-12T16:06:00.185Z,19.55
2023-03-12T16:08:55.108Z,21.60
2023-03-12T16:11:40.310Z,23.45
2023-03-12T16:14:30.942Z,22.92
2023-03-12T16:17:18.125Z,21.88
2023-03-12T16:20:05.565Z,19.48
2023-03-12T16:22:51.049Z,22.90
2023-03-12T16:25:37.192Z,22.77
2023-03-12T16:28:24.051Z,18.08
2023-03-12T16:31:15.337Z,21.42
2023-03-12T16:34:01.036Z,16.00
2023-03-12T16:36:46.117Z,20.98
2023-03-12T16:39:33.153Z,24.20
2023-03-12T16:42:20.426Z,18.08
2023-03-12T16:45:10.819Z,18.88
2023-03-12T16:48:01.373Z,20.77
2023-03-12T16:50:52.380Z,21.60
2023-03-12T16:53:37.528Z,20.27
2023-03-12T16:56:25.199Z,18.70
2023-03-12T16:59:27.371Z,21.85
2023-03-12T17:02:17.354Z,21.77
2023-03-12T17:05:02.972Z,28.05
2023-03-12T17:07:48.474Z,20.23
2023-03-12T17:10:33.803Z,15.52
2023-03-12T17:13:25.562Z,16.40
2023-03-12T17:16:12.803Z,17.88
2023-03-12T17:18:58.175Z,21.58
2023-03-12T17:21:44.188Z,30.00
2023-03-12T17:24:29.555Z,26.05
2023-03-12T17:27:15.587Z,22.58
2023-03-12T17:30:01.138Z,27.05
2023-03-12T17:32:46.868Z,24.92
2023-03-12T17:35:33.140Z,25.60
2023-03-12T17:38:18.484Z,34.28
2023-03-12T17:41:09.377Z,31.85
2023-03-12T17:43:59.747Z,29.90
2023-03-12T17:46:58.420Z,32.78
2023-03-12T17:49:45.059Z,37.95
2023-03-12T17:52:31.910Z,31.48
2023-03-12T17:55:17.467Z,28.05
2023-03-12T17:58:05.912Z,30.58
2023-03-12T18:00:50.975Z,33.67
2023-03-12T18:03:36.509Z,33.60
2023-03-12T18:06:21.638Z,42.20
2023-03-12T18:09:06.898Z,34.33
2023-03-12T18:11:52.520Z,25.48
2023-03-12T18:14:38.241Z,29.70
2023-03-12T18:17:23.475Z,22.45
2023-03-12T18:20:12.496Z,21.70
2023-03-12T18:22:58.015Z,27.70
2023-03-12T18:25:43.501Z,22.38
2023-03-12T18:28:28.931Z,18.83
2023-03-12T18:31:14.043Z,21.73
2023-03-12T18:33:59.440Z,16.58
2023-03-12T18:36:44.656Z,15.45
2023-03-12T18:39:30.328Z,14.10
2023-03-12T18:42:15.736Z,17.20
2023-03-12T18:45:01.257Z,19.20
2023-03-12T18:47:50.092Z,15.18
2023-03-12T18:50:35.133Z,18.30
2023-03-12T18:53:20.750Z,12.30
2023-03-12T18:56:06.757Z,12.88
2023-03-12T18:58:51.817Z,20.77
2023-03-12T19:01:37.518Z,12.57
2023-03-12T19:04:23.123Z,12.40
2023-03-12T19:07:10.793Z,14.02
2023-03-12T19:09:56.508Z,9.38
2023-03-12T19:12:52.170Z,17.50
2023-03-12T19:15:39.242Z,10.65
2023-03-12T19:18:24.478Z,13.63
2023-03-12T19:21:09.853Z,17.55
2023-03-12T19:23:55.230Z,18.75
2023-03-12T19:26:40.745Z,13.82
2023-03-12T19:29:26.361Z,17.92
2023-03-12T19:32:11.705Z,21.55
2023-03-12T19:34:57.160Z,18.20
2023-03-12T19:37:42.636Z,15.25
2023-03-12T19:40:28.153Z,21.35
2023-03-12T19:43:13.572Z,15.77
2023-03-12T19:45:59.290Z,18.95
2023-03-12T19:48:44.666Z,16.00
2023-03-12T19:51:30.153Z,18.00
2023-03-12T19:54:15.593Z,20.75
2023-03-12T19:57:01.053Z,17.15
2023-03-12T19:59:46.483Z,18.83
2023-03-12T20:02:32.184Z,15.63
2023-03-12T20:05:17.691Z,15.15
2023-03-12T20:08:03.122Z,15.77
2023-03-12T20:10:49.807Z,18.52
2023-03-12T20:13:35.724Z,13.02
2023-03-12T20:16:21.415Z,17.58
2023-03-12T20:19:06.642Z,17.05
2023-03-12T20:21:52.175Z,18.00
2023-03-12T20:24:37.606Z,12.52
2023-03-12T20:27:23.027Z,19.10
2023-03-12T20:30:09.352Z,14.73
2023-03-12T20:32:54.636Z,20.52
2023-03-12T20:35:40.216Z,16.67
2023-03-12T20:38:25.895Z,17.35
2023-03-12T20:41:15.539Z,17.15
2023-03-12T20:44:00.894Z,17.10
2023-03-12T20:46:47.608Z,16.60
2023-03-12T20:49:33.026Z,18.80
2023-03-12T20:52:18.260Z,15.50
2023-03-12T20:55:04.055Z,16.75
2023-03-12T20:57:49.407Z,20.65
2023-03-12T21:00:34.754Z,14.77
2023-03-12T21:03:20.238Z,16.73
2023-03-12T21:06:05.776Z,20.58
2023-03-12T21:08:51.200Z,21.40
2023-03-12T21:11:39.135Z,20.10
2023-03-12T21:14:24.867Z,16.95
2023-03-12T21:17:13.535Z,13.45
2023-03-12T21:19:58.779Z,12.90
2023-03-12T21:22:46.625Z,17.55
2023-03-12T21:25:36.548Z,13.93
2023-03-12T21:28:22.039Z,16.70
2023-03-12T21:31:10.147Z,16.08
2023-03-12T21:33:58.835Z,16.67
2023-03-12T21:36:44.028Z,16.27
2023-03-12T21:39:29.450Z,12.55
2023-03-12T21:42:14.963Z,13.20
2023-03-12T21:45:00.526Z,14.63
2023-03-12T21:47:46.404Z,11.82
2023-03-12T21:50:31.805Z,11.38
2023-03-12T21:53:23.749Z,15.55
2023-03-12T21:56:10.915Z,12.32
2023-03-12T21:58:57.291Z,12.55
2023-03-12T22:01:42.615Z,11.63
2023-03-12T22:04:28.502Z,17.02
2023-03-12T22:07:14.129Z,12.25
2023-03-12T22:09:59.600Z,12.98
2023-03-12T22:12:45.439Z,10.63
2023-03-12T22:15:31.376Z,10.25
2023-03-12T22:18:16.823Z,11.00
2023-03-12T22:21:04.621Z,15.07
2023-03-12T22:23:52.336Z,15.55
2023-03-12T22:26:37.556Z,12.05
2023-03-12T22:29:22.886Z,15.48
2023-03-12T22:32:08.221Z,12.45
2023-03-12T22:34:53.689Z,14.02
2023-03-12T22:37:39.084Z,13.88
2023-03-12T22:40:25.893Z,15.65
2023-03-12T22:43:11.276Z,17.13
2023-03-12T22:45:56.564Z,15.30
2023-03-12T22:48:42.976Z,16.60
2023-03-12T22:51:30.167Z,17.48
2023-03-12T22:54:15.292Z,13.02
2023-03-12T22:57:00.825Z,20.13
2023-03-12T22:59:47.845Z,13.85
2023-03-12T23:02:33.146Z,13.95
2023-03-12T23:05:18.770Z,14.50
2023-03-12T23:08:04.206Z,14.82
2023-03-12T23:10:54.541Z,12.25
2023-03-12T23:13:42.463Z,19.85
2023-03-12T23:16:27.932Z,19.40
2023-03-12T23:19:13.194Z,15.82
2023-03-12T23:21:58.809Z,11.88
2023-03-12T23:24:44.239Z,25.08
2023-03-12T23:27:29.783Z,18.02
2023-03-12T23:30:15.311Z,14.50
2023-03-12T23:33:01.737Z,13.00
2023-03-12T23:36:03.055Z,14.63
2023-03-12T23:38:49.521Z,14.88
2023-03-12T23:41:34.806Z,21.48
2023-03-12T23:44:20.123Z,14.63
2023-03-12T23:47:05.725Z,17.52
2023-03-12T23:49:51.253Z,15.88
2023-03-12T23:52:36.548Z,23.02
2023-03-12T23:55:21.942Z,19.85
2023-03-12T23:58:07.230Z,18.42
